sensor_id;sensor_type;location;lat;lon;timestamp;pressure;altitude;pressure_sealevel;temperature;humidity
3812;BME280;1921;49.368;11.068;2023-08-17T00:02:15;97771.13;;;21.25;100.00
3812;BME280;1921;49.368;11.068;2023-08-17T00:04:41;97745.78;;;21.17;100.00
3812;BME280;1921;49.368;11.068;2023-08-17T00:07:07;97743.56;;;21.26;100.00
3812;BME280;1921;49.368;11.068;2023-08-17T00:09:33;97761.09;;;21.44;100.00
3812;BME280;1921;49.368;11.068;2023-08-17T00:11:58;97750.69;;;21.42;100.00
3812;BME280;1921;49.368;11.068;2023-08-17T00:14:25;97738.50;;;21.41;100.00
3812;BME280;1921;49.368;11.068;2023-08-17T00:16:51;97750.31;;;21.50;100.00
3812;BME280;1921;49.368;11.068;2023-08-17T00:19:17;97768.22;;;21.60;100.00
3812;BME280;1921;49.368;11.068;2023-08-17T00:21:45;97756.50;;;21.56;100.00
3812;BME280;1921;49.368;11.068;2023-08-17T00:24:11;97741.78;;;21.48;100.00
3812;BME280;1921;49.368;11.068;2023-08-17T00:26:37;97742.09;;;21.52;100.00
3812;BME280;1921;49.368;11.068;2023-08-17T00:29:03;97764.19;;;21.74;100.00
3812;BME280;1921;49.368;11.068;2023-08-17T00:31:29;97751.38;;;21.71;100.00
3812;BME280;1921;49.368;11.068;2023-08-17T00:33:55;97726.25;;;21.57;100.00
3812;BME280;1921;49.368;11.068;2023-08-17T00:36:21;97757.91;;;21.81;100.00
3812;BME280;1921;49.368;11.068;2023-08-17T00:38:46;97794.81;;;22.04;100.00
3812;BME280;1921;49.368;11.068;2023-08-17T00:41:12;97756.25;;;21.80;100.00
3812;BME280;1921;49.368;11.068;2023-08-17T00:43:38;97795.88;;;22.03;100.00
3812;BME280;1921;49.368;11.068;2023-08-17T00:46:04;97759.16;;;21.78;100.00
3812;BME280;1921;49.368;11.068;2023-08-17T00:48:30;97762.56;;;21.73;100.00
3812;BME280;1921;49.368;11.068;2023-08-17T00:50:58;97749.63;;;21.60;100.00
3812;BME280;1921;49.368;11.068;2023-08-17T00:53:27;97769.41;;;21.69;100.00
3812;BME280;1921;49.368;11.068;2023-08-17T00:55:57;97770.50;;;21.73;100.00
3812;BME280;1921;49.368;11.068;2023-08-17T00:58:23;97760.94;;;21.72;100.00
3812;BME280;1921;49.368;11.068;2023-08-17T01:00:49;97763.72;;;21.61;100.00
3812;BME280;1921;49.368;11.068;2023-08-17T01:03:16;97772.31;;;21.68;100.00
3812;BME280;1921;49.368;11.068;2023-08-17T01:05:42;97805.69;;;21.81;100.00
3812;BME280;1921;49.368;11.068;2023-08-17T01:08:08;97786.94;;;21.70;100.00
3812;BME280;1921;49.368;11.068;2023-08-17T01:11:22;97836.63;;;21.92;100.00
3812;BME280;1921;49.368;11.068;2023-08-17T01:14:00;97784.38;;;21.59;100.00
3812;BME280;1921;49.368;11.068;2023-08-17T01:16:36;97831.75;;;21.84;100.00
3812;BME280;1921;49.368;11.068;2023-08-17T01:19:08;97772.25;;;21.46;100.00
3812;BME280;1921;49.368;11.068;2023-08-17T01:21:51;97825.72;;;21.71;100.00
3812;BME280;1921;49.368;11.068;2023-08-17T01:24:19;97776.13;;;21.38;100.00
3812;BME280;1921;49.368;11.068;2023-08-17T01:26:45;97821.72;;;21.69;100.00
3812;BME280;1921;49.368;11.068;2023-08-17T01:29:11;97778.38;;;21.46;100.00
3812;BME280;1921;49.368;11.068;2023-08-17T01:31:47;97757.31;;;21.40;100.00
3812;BME280;1921;49.368;11.068;2023-08-17T01:34:19;97748.72;;;21.33;100.00
3812;BME280;1921;49.368;11.068;2023-08-17T01:37:07;97756.50;;;21.39;100.00
3812;BME280;1921;49.368;11.068;2023-08-17T01:39:41;97798.03;;;21.67;100.00
3812;BME280;1921;49.368;11.068;2023-08-17T01:42:09;97792.09;;;21.60;100.00
3812;BME280;1921;49.368;11.068;2023-08-17T01:44:35;97756.69;;;21.33;100.00
3812;BME280;1921;49.368;11.068;2023-08-17T01:47:01;97758.38;;;21.39;100.00
3812;BME280;1921;49.368;11.068;2023-08-17T01:49:27;97742.97;;;21.24;100.00
3812;BME280;1921;49.368;11.068;2023-08-17T01:51:53;97785.09;;;21.54;100.00
3812;BME280;1921;49.368;11.068;2023-08-17T01:54:19;97751.66;;;21.36;100.00
3812;BME280;1921;49.368;11.068;2023-08-17T01:56:44;97790.28;;;21.44;100.00
3812;BME280;1921;49.368;11.068;2023-08-17T01:59:10;97765.91;;;21.13;100.00
3812;BME280;1921;49.368;11.068;2023-08-17T02:01:36;97763.25;;;21.13;100.00
3812;BME280;1921;49.368;11.068;2023-08-17T02:04:02;97721.59;;;20.97;100.00
3812;BME280;1921;49.368;11.068;2023-08-17T02:06:28;97758.78;;;21.31;100.00
3812;BME280;1921;49.368;11.068;2023-08-17T02:08:54;97748.22;;;21.36;100.00
3812;BME280;1921;49.368;11.068;2023-08-17T02:11:20;97741.38;;;21.40;100.00
3812;BME280;1921;49.368;11.068;2023-08-17T02:13:46;97742.75;;;21.42;100.00
3812;BME280;1921;49.368;11.068;2023-08-17T02:16:12;97746.09;;;21.55;100.00
3812;BME280;1921;49.368;11.068;2023-08-17T02:18:37;97774.66;;;21.64;100.00
3812;BME280;1921;49.368;11.068;2023-08-17T02:21:03;97729.34;;;21.32;100.00
3812;BME280;1921;49.368;11.068;2023-08-17T02:23:29;97714.53;;;21.19;100.00
3812;BME280;1921;49.368;11.068;2023-08-17T02:25:55;97726.59;;;21.27;100.00
3812;BME280;1921;49.368;11.068;2023-08-17T02:28:20;97744.41;;;21.48;100.00
3812;BME280;1921;49.368;11.068;2023-08-17T02:30:46;97716.53;;;21.46;100.00
3812;BME280;1921;49.368;11.068;2023-08-17T02:33:13;97730.25;;;21.60;100.00
3812;BME280;1921;49.368;11.068;2023-08-17T02:35:39;97700.63;;;21.46;100.00
3812;BME280;1921;49.368;11.068;2023-08-17T02:38:04;97702.00;;;21.32;100.00
3812;BME280;1921;49.368;11.068;2023-08-17T02:40:30;97720.72;;;21.42;100.00
3812;BME280;1921;49.368;11.068;2023-08-17T02:42:56;97713.69;;;21.31;100.00
3812;BME280;1921;49.368;11.068;2023-08-17T02:45:22;97703.94;;;21.19;100.00
3812;BME280;1921;49.368;11.068;2023-08-17T02:47:47;97710.03;;;21.03;100.00
3812;BME280;1921;49.368;11.068;2023-08-17T02:50:13;97702.75;;;20.93;100.00
3812;BME280;1921;49.368;11.068;2023-08-17T02:52:39;97713.66;;;20.97;100.00
3812;BME280;1921;49.368;11.068;2023-08-17T02:55:05;97729.47;;;20.92;100.00
3812;BME280;1921;49.368;11.068;2023-08-17T02:57:31;97736.38;;;21.10;100.00
3812;BME280;1921;49.368;11.068;2023-08-17T02:59:57;97750.94;;;21.24;100.00
3812;BME280;1921;49.368;11.068;2023-08-17T03:02:22;97720.09;;;21.18;100.00
3812;BME280;1921;49.368;11.068;2023-08-17T03:04:48;97779.75;;;21.32;100.00
3812;BME280;1921;49.368;11.068;2023-08-17T03:07:14;97711.28;;;20.67;100.00
3812;BME280;1921;49.368;11.068;2023-08-17T03:09:39;97721.19;;;20.72;100.00
3812;BME280;1921;49.368;11.068;2023-08-17T03:12:05;97716.69;;;20.72;100.00
3812;BME280;1921;49.368;11.068;2023-08-17T03:14:31;97726.81;;;20.92;100.00
3812;BME280;1921;49.368;11.068;2023-08-17T03:16:57;97693.81;;;20.83;100.00
3812;BME280;1921;49.368;11.068;2023-08-17T03:19:22;97741.06;;;21.19;100.00
3812;BME280;1921;49.368;11.068;2023-08-17T03:21:48;97722.41;;;21.14;100.00
3812;BME280;1921;49.368;11.068;2023-08-17T03:24:14;97729.41;;;21.20;100.00
3812;BME280;1921;49.368;11.068;2023-08-17T03:26:39;97737.28;;;21.15;100.00
3812;BME280;1921;49.368;11.068;2023-08-17T03:29:05;97726.75;;;20.87;100.00
3812;BME280;1921;49.368;11.068;2023-08-17T03:31:31;97746.97;;;20.93;100.00
3812;BME280;1921;49.368;11.068;2023-08-17T03:33:57;97748.28;;;21.07;100.00
3812;BME280;1921;49.368;11.068;2023-08-17T03:36:23;97719.44;;;20.94;100.00
3812;BME280;1921;49.368;11.068;2023-08-17T03:38:48;97751.09;;;20.84;100.00
3812;BME280;1921;49.368;11.068;2023-08-17T03:41:14;97717.50;;;20.44;100.00
3812;BME280;1921;49.368;11.068;2023-08-17T03:43:40;97743.84;;;20.79;100.00
3812;BME280;1921;49.368;11.068;2023-08-17T03:46:05;97710.03;;;20.69;100.00
3812;BME280;1921;49.368;11.068;2023-08-17T03:48:31;97710.03;;;20.86;100.00
3812;BME280;1921;49.368;11.068;2023-08-17T03:50:57;97720.47;;;20.93;100.00
3812;BME280;1921;49.368;11.068;2023-08-17T03:53:23;97719.28;;;21.01;100.00
3812;BME280;1921;49.368;11.068;2023-08-17T03:55:49;97761.44;;;21.31;100.00
3812;BME280;1921;49.368;11.068;2023-08-17T03:58:17;97744.19;;;21.16;100.00
3812;BME280;1921;49.368;11.068;2023-08-17T04:00:52;97715.84;;;21.00;100.00
3812;BME280;1921;49.368;11.068;2023-08-17T04:03:19;97738.56;;;21.13;100.00
3812;BME280;1921;49.368;11.068;2023-08-17T04:05:45;97723.38;;;21.08;100.00
3812;BME280;1921;49.368;11.068;2023-08-17T04:08:11;97724.09;;;21.04;100.00
3812;BME280;1921;49.368;11.068;2023-08-17T04:10:37;97719.19;;;20.95;100.00
3812;BME280;1921;49.368;11.068;2023-08-17T04:13:03;97732.75;;;20.99;100.00
3812;BME280;1921;49.368;11.068;2023-08-17T04:15:28;97722.56;;;20.91;100.00
3812;BME280;1921;49.368;11.068;2023-08-17T04:17:54;97767.41;;;21.09;100.00
3812;BME280;1921;49.368;11.068;2023-08-17T04:20:20;97730.22;;;20.87;100.00
3812;BME280;1921;49.368;11.068;2023-08-17T04:22:47;97703.69;;;20.70;100.00
3812;BME280;1921;49.368;11.068;2023-08-17T04:25:13;97726.09;;;20.63;100.00
3812;BME280;1921;49.368;11.068;2023-08-17T04:27:39;97696.78;;;20.41;100.00
3812;BME280;1921;49.368;11.068;2023-08-17T04:30:05;97741.59;;;20.71;100.00
3812;BME280;1921;49.368;11.068;2023-08-17T04:32:31;97722.16;;;20.65;100.00
3812;BME280;1921;49.368;11.068;2023-08-17T04:34:57;97771.44;;;20.95;100.00
3812;BME280;1921;49.368;11.068;2023-08-17T04:37:23;97680.63;;;20.42;100.00
3812;BME280;1921;49.368;11.068;2023-08-17T04:39:48;97737.16;;;20.60;100.00
3812;BME280;1921;49.368;11.068;2023-08-17T04:42:15;97771.16;;;20.63;100.00
3812;BME280;1921;49.368;11.068;2023-08-17T04:44:40;97776.06;;;20.71;100.00
3812;BME280;1921;49.368;11.068;2023-08-17T04:47:06;97736.41;;;20.48;100.00
3812;BME280;1921;49.368;11.068;2023-08-17T04:49:32;97749.25;;;20.56;100.00
3812;BME280;1921;49.368;11.068;2023-08-17T04:51:57;97771.31;;;20.73;100.00
3812;BME280;1921;49.368;11.068;2023-08-17T04:54:23;97734.41;;;20.55;100.00
3812;BME280;1921;49.368;11.068;2023-08-17T04:56:49;97787.66;;;20.82;100.00
3812;BME280;1921;49.368;11.068;2023-08-17T04:59:15;97763.44;;;20.78;100.00
3812;BME280;1921;49.368;11.068;2023-08-17T05:01:40;97731.44;;;20.68;100.00
3812;BME280;1921;49.368;11.068;2023-08-17T05:04:07;97735.72;;;20.86;100.00
3812;BME280;1921;49.368;11.068;2023-08-17T05:06:33;97756.75;;;21.38;100.00
3812;BME280;1921;49.368;11.068;2023-08-17T05:08:59;97702.28;;;21.52;100.00
3812;BME280;1921;49.368;11.068;2023-08-17T05:11:24;97751.44;;;22.37;100.00
3812;BME280;1921;49.368;11.068;2023-08-17T05:13:50;97760.56;;;23.00;100.00
3812;BME280;1921;49.368;11.068;2023-08-17T05:16:16;97743.41;;;23.55;100.00
3812;BME280;1921;49.368;11.068;2023-08-17T05:18:42;97735.97;;;24.15;100.00
3812;BME280;1921;49.368;11.068;2023-08-17T05:21:08;97735.56;;;24.49;92.01
3812;BME280;1921;49.368;11.068;2023-08-17T05:23:33;97769.50;;;24.89;86.82
3812;BME280;1921;49.368;11.068;2023-08-17T05:25:59;97764.72;;;25.42;87.21
3812;BME280;1921;49.368;11.068;2023-08-17T05:28:26;97740.63;;;25.67;84.23
3812;BME280;1921;49.368;11.068;2023-08-17T05:30:52;97746.44;;;25.95;81.09
3812;BME280;1921;49.368;11.068;2023-08-17T05:33:19;97743.13;;;26.28;77.06
3812;BME280;1921;49.368;11.068;2023-08-17T05:35:44;97735.63;;;26.75;77.51
3812;BME280;1921;49.368;11.068;2023-08-17T05:38:10;97733.94;;;27.23;76.09
3812;BME280;1921;49.368;11.068;2023-08-17T05:40:36;97753.22;;;27.49;69.66
3812;BME280;1921;49.368;11.068;2023-08-17T05:43:02;97746.50;;;27.81;69.77
3812;BME280;1921;49.368;11.068;2023-08-17T05:45:27;97681.66;;;27.79;68.13
3812;BME280;1921;49.368;11.068;2023-08-17T05:47:53;97733.31;;;28.51;68.53
3812;BME280;1921;49.368;11.068;2023-08-17T05:50:19;97761.22;;;28.69;64.26
3812;BME280;1921;49.368;11.068;2023-08-17T05:52:45;97748.16;;;28.43;63.51
3812;BME280;1921;49.368;11.068;2023-08-17T05:55:10;97765.00;;;27.53;69.78
3812;BME280;1921;49.368;11.068;2023-08-17T05:57:36;97744.50;;;27.38;68.93
3812;BME280;1921;49.368;11.068;2023-08-17T06:00:02;97772.59;;;28.18;69.57
3812;BME280;1921;49.368;11.068;2023-08-17T06:02:29;97750.53;;;26.86;71.59
3812;BME280;1921;49.368;11.068;2023-08-17T06:04:55;97760.03;;;26.68;71.82
3812;BME280;1921;49.368;11.068;2023-08-17T06:07:21;97749.34;;;26.63;72.83
3812;BME280;1921;49.368;11.068;2023-08-17T06:09:46;97764.38;;;26.59;72.61
3812;BME280;1921;49.368;11.068;2023-08-17T06:12:12;97755.25;;;26.06;74.67
3812;BME280;1921;49.368;11.068;2023-08-17T06:14:38;97761.69;;;24.36;82.50
3812;BME280;1921;49.368;11.068;2023-08-17T06:17:04;97745.00;;;23.99;84.50
3812;BME280;1921;49.368;11.068;2023-08-17T06:19:29;97789.53;;;25.02;85.34
3812;BME280;1921;49.368;11.068;2023-08-17T06:21:55;97736.91;;;25.79;78.70
3812;BME280;1921;49.368;11.068;2023-08-17T06:24:21;97793.28;;;26.52;74.19
3812;BME280;1921;49.368;11.068;2023-08-17T06:26:46;97787.91;;;25.92;77.44
3812;BME280;1921;49.368;11.068;2023-08-17T06:29:12;97760.56;;;26.11;77.43
3812;BME280;1921;49.368;11.068;2023-08-17T06:31:38;97780.19;;;26.95;76.57
3812;BME280;1921;49.368;11.068;2023-08-17T06:34:04;97758.50;;;27.59;71.77
3812;BME280;1921;49.368;11.068;2023-08-17T06:36:31;97778.22;;;28.22;69.97
3812;BME280;1921;49.368;11.068;2023-08-17T06:38:58;97779.59;;;27.37;70.30
3812;BME280;1921;49.368;11.068;2023-08-17T06:41:23;97736.03;;;27.26;71.71
3812;BME280;1921;49.368;11.068;2023-08-17T06:43:50;97771.88;;;28.12;68.74
3812;BME280;1921;49.368;11.068;2023-08-17T06:46:16;97757.38;;;28.13;66.25
3812;BME280;1921;49.368;11.068;2023-08-17T06:48:44;97785.00;;;28.14;65.89
3812;BME280;1921;49.368;11.068;2023-08-17T06:51:10;97786.44;;;27.53;68.89
3812;BME280;1921;49.368;11.068;2023-08-17T06:53:36;97780.38;;;27.72;70.27
3812;BME280;1921;49.368;11.068;2023-08-17T06:56:01;97766.59;;;27.54;68.44
3812;BME280;1921;49.368;11.068;2023-08-17T06:58:27;97761.72;;;28.09;68.51
3812;BME280;1921;49.368;11.068;2023-08-17T07:00:53;97657.91;;;27.67;67.93
3812;BME280;1921;49.368;11.068;2023-08-17T07:03:19;97767.59;;;28.73;65.54
3812;BME280;1921;49.368;11.068;2023-08-17T07:05:46;97799.28;;;29.28;63.59
3812;BME280;1921;49.368;11.068;2023-08-17T07:08:11;97792.53;;;29.63;63.33
3812;BME280;1921;49.368;11.068;2023-08-17T07:10:39;97771.81;;;29.31;61.50
3812;BME280;1921;49.368;11.068;2023-08-17T07:13:05;97770.91;;;28.27;66.22
3812;BME280;1921;49.368;11.068;2023-08-17T07:15:31;97737.03;;;28.88;61.33
3812;BME280;1921;49.368;11.068;2023-08-17T07:17:57;97791.09;;;29.19;61.99
3812;BME280;1921;49.368;11.068;2023-08-17T07:20:23;97773.75;;;28.36;62.40
3812;BME280;1921;49.368;11.068;2023-08-17T07:22:48;97749.56;;;27.11;69.52
3812;BME280;1921;49.368;11.068;2023-08-17T07:25:14;97788.03;;;27.54;69.49
3812;BME280;1921;49.368;11.068;2023-08-17T07:27:41;97755.97;;;27.73;67.25
3812;BME280;1921;49.368;11.068;2023-08-17T07:30:07;97780.72;;;28.75;64.05
3812;BME280;1921;49.368;11.068;2023-08-17T07:32:34;97771.94;;;29.07;62.73
3812;BME280;1921;49.368;11.068;2023-08-17T07:35:00;97793.06;;;29.46;61.64
3812;BME280;1921;49.368;11.068;2023-08-17T07:37:25;97778.94;;;28.70;63.87
3812;BME280;1921;49.368;11.068;2023-08-17T07:39:58;97778.63;;;29.42;59.76
3812;BME280;1921;49.368;11.068;2023-08-17T07:42:24;97779.88;;;29.31;59.23
3812;BME280;1921;49.368;11.068;2023-08-17T07:44:50;97778.50;;;29.93;60.17
3812;BME280;1921;49.368;11.068;2023-08-17T07:47:16;97802.00;;;30.56;55.47
3812;BME280;1921;49.368;11.068;2023-08-17T07:49:41;97797.63;;;29.64;58.61
3812;BME280;1921;49.368;11.068;2023-08-17T07:52:07;97786.28;;;30.09;55.01
3812;BME280;1921;49.368;11.068;2023-08-17T07:54:33;97786.34;;;30.72;55.85
3812;BME280;1921;49.368;11.068;2023-08-17T07:56:59;97779.50;;;31.56;50.62
3812;BME280;1921;49.368;11.068;2023-08-17T07:59:25;97794.53;;;32.19;48.93
3812;BME280;1921;49.368;11.068;2023-08-17T08:01:50;97783.72;;;31.48;49.56
3812;BME280;1921;49.368;11.068;2023-08-17T08:04:16;97750.03;;;32.16;47.51
3812;BME280;1921;49.368;11.068;2023-08-17T08:06:42;97753.63;;;32.60;46.83
3812;BME280;1921;49.368;11.068;2023-08-17T08:09:09;97782.38;;;32.65;45.70
3812;BME280;1921;49.368;11.068;2023-08-17T08:11:35;97772.53;;;33.04;46.12
3812;BME280;1921;49.368;11.068;2023-08-17T08:14:01;97782.97;;;32.36;46.91
3812;BME280;1921;49.368;11.068;2023-08-17T08:16:28;97756.03;;;32.97;45.80
3812;BME280;1921;49.368;11.068;2023-08-17T08:18:56;97743.59;;;33.21;42.93
3812;BME280;1921;49.368;11.068;2023-08-17T08:21:22;97750.66;;;32.88;43.95
3812;BME280;1921;49.368;11.068;2023-08-17T08:23:47;97777.69;;;33.69;42.81
3812;BME280;1921;49.368;11.068;2023-08-17T08:26:13;97766.13;;;33.90;41.94
3812;BME280;1921;49.368;11.068;2023-08-17T08:28:39;97760.09;;;33.55;43.39
3812;BME280;1921;49.368;11.068;2023-08-17T08:31:05;97773.41;;;34.36;41.55
3812;BME280;1921;49.368;11.068;2023-08-17T08:33:31;97768.28;;;34.35;40.57
3812;BME280;1921;49.368;11.068;2023-08-17T08:35:57;97750.03;;;34.73;39.75
3812;BME280;1921;49.368;11.068;2023-08-17T08:38:24;97758.38;;;34.39;40.75
3812;BME280;1921;49.368;11.068;2023-08-17T08:40:50;97774.91;;;34.54;39.73
3812;BME280;1921;49.368;11.068;2023-08-17T08:43:17;97732.50;;;34.92;38.77
3812;BME280;1921;49.368;11.068;2023-08-17T08:45:44;97739.94;;;35.85;37.87
3812;BME280;1921;49.368;11.068;2023-08-17T08:48:13;97745.41;;;36.62;36.63
3812;BME280;1921;49.368;11.068;2023-08-17T08:50:41;97749.53;;;36.44;36.90
3812;BME280;1921;49.368;11.068;2023-08-17T08:53:42;97772.88;;;37.13;35.81
3812;BME280;1921;49.368;11.068;2023-08-17T08:56:12;97719.28;;;36.86;35.39
3812;BME280;1921;49.368;11.068;2023-08-17T08:58:42;97776.66;;;37.37;35.79
3812;BME280;1921;49.368;11.068;2023-08-17T09:01:10;97738.59;;;37.09;35.69
3812;BME280;1921;49.368;11.068;2023-08-17T09:03:36;97672.41;;;37.20;34.80
3812;BME280;1921;49.368;11.068;2023-08-17T09:06:03;97740.66;;;38.42;33.95
3812;BME280;1921;49.368;11.068;2023-08-17T09:08:31;97744.16;;;38.77;32.71
3812;BME280;1921;49.368;11.068;2023-08-17T09:10:57;97746.09;;;39.39;31.86
3812;BME280;1921;49.368;11.068;2023-08-17T09:13:23;97739.84;;;38.76;32.33
3812;BME280;1921;49.368;11.068;2023-08-17T09:15:48;97729.75;;;39.00;32.49
3812;BME280;1921;49.368;11.068;2023-08-17T09:18:16;97734.78;;;38.59;32.78
3812;BME280;1921;49.368;11.068;2023-08-17T09:20:45;97737.28;;;39.07;32.17
3812;BME280;1921;49.368;11.068;2023-08-17T09:23:16;97725.72;;;38.36;32.63
3812;BME280;1921;49.368;11.068;2023-08-17T09:25:44;97747.03;;;38.49;32.96
3812;BME280;1921;49.368;11.068;2023-08-17T09:28:17;97737.84;;;37.40;33.84
3812;BME280;1921;49.368;11.068;2023-08-17T09:31:01;97727.50;;;35.15;38.16
3812;BME280;1921;49.368;11.068;2023-08-17T09:33:32;97755.97;;;36.52;36.19
3812;BME280;1921;49.368;11.068;2023-08-17T09:35:59;97756.13;;;37.11;35.59
3812;BME280;1921;49.368;11.068;2023-08-17T09:38:27;97714.81;;;37.69;34.62
3812;BME280;1921;49.368;11.068;2023-08-17T09:40:53;97714.91;;;38.59;32.83
3812;BME280;1921;49.368;11.068;2023-08-17T09:43:19;97726.50;;;37.69;34.23
3812;BME280;1921;49.368;11.068;2023-08-17T09:45:49;97748.47;;;38.63;33.02
3812;BME280;1921;49.368;11.068;2023-08-17T09:48:17;97628.19;;;38.64;31.63
3812;BME280;1921;49.368;11.068;2023-08-17T09:50:44;97755.50;;;37.02;35.41
3812;BME280;1921;49.368;11.068;2023-08-17T09:53:14;97749.00;;;38.14;32.91
3812;BME280;1921;49.368;11.068;2023-08-17T09:55:45;97740.41;;;38.31;32.54
3812;BME280;1921;49.368;11.068;2023-08-17T09:58:12;97706.00;;;38.07;33.17
3812;BME280;1921;49.368;11.068;2023-08-17T10:00:50;97718.84;;;38.07;33.24
3812;BME280;1921;49.368;11.068;2023-08-17T10:03:18;97739.84;;;38.76;32.49
3812;BME280;1921;49.368;11.068;2023-08-17T10:05:55;97717.78;;;39.70;30.59
3812;BME280;1921;49.368;11.068;2023-08-17T10:08:24;97723.22;;;40.23;30.14
3812;BME280;1921;49.368;11.068;2023-08-17T10:10:52;97718.13;;;39.22;30.56
3812;BME280;1921;49.368;11.068;2023-08-17T10:16:03;97707.16;;;39.91;30.19
3812;BME280;1921;49.368;11.068;2023-08-17T10:19:21;97680.19;;;38.56;32.11
3812;BME280;1921;49.368;11.068;2023-08-17T10:21:46;97721.19;;;39.63;30.95
3812;BME280;1921;49.368;11.068;2023-08-17T10:24:12;97719.91;;;38.57;32.51
3812;BME280;1921;49.368;11.068;2023-08-17T10:26:39;97700.00;;;38.53;32.77
3812;BME280;1921;49.368;11.068;2023-08-17T10:29:06;97726.31;;;39.45;31.34
3812;BME280;1921;49.368;11.068;2023-08-17T10:31:34;97723.00;;;39.13;30.93
3812;BME280;1921;49.368;11.068;2023-08-17T10:34:01;97703.81;;;33.39;40.63
3812;BME280;1921;49.368;11.068;2023-08-17T10:36:29;97736.75;;;33.24;41.68
3812;BME280;1921;49.368;11.068;2023-08-17T10:39:28;97697.38;;;36.26;35.79
3812;BME280;1921;49.368;11.068;2023-08-17T10:41:56;97706.50;;;37.78;33.67
3812;BME280;1921;49.368;11.068;2023-08-17T10:50:03;97695.94;;;39.50;30.48
3812;BME280;1921;49.368;11.068;2023-08-17T10:52:33;97702.06;;;39.90;29.20
3812;BME280;1921;49.368;11.068;2023-08-17T10:55:04;97688.69;;;39.58;29.68
3812;BME280;1921;49.368;11.068;2023-08-17T10:57:40;97709.56;;;39.96;29.80
3812;BME280;1921;49.368;11.068;2023-08-17T11:00:22;97669.31;;;40.20;29.31
3812;BME280;1921;49.368;11.068;2023-08-17T11:03:18;97714.25;;;38.11;31.38
3812;BME280;1921;49.368;11.068;2023-08-17T11:05:50;97684.19;;;38.62;31.12
3812;BME280;1921;49.368;11.068;2023-08-17T11:08:39;97723.16;;;39.20;31.25
3812;BME280;1921;49.368;11.068;2023-08-17T11:11:15;97686.06;;;36.24;34.33
3812;BME280;1921;49.368;11.068;2023-08-17T11:13:44;97707.75;;;36.49;34.31
3812;BME280;1921;49.368;11.068;2023-08-17T11:16:13;97690.59;;;37.64;32.96
3812;BME280;1921;49.368;11.068;2023-08-17T11:18:40;97677.09;;;38.38;31.97
3812;BME280;1921;49.368;11.068;2023-08-17T11:21:10;97724.53;;;39.56;30.63
3812;BME280;1921;49.368;11.068;2023-08-17T11:23:37;97710.09;;;39.79;29.85
3812;BME280;1921;49.368;11.068;2023-08-17T11:26:04;97683.66;;;39.60;29.81
3812;BME280;1921;49.368;11.068;2023-08-17T11:28:32;97727.03;;;40.15;29.66
3812;BME280;1921;49.368;11.068;2023-08-17T11:31:07;97702.16;;;40.53;29.00
3812;BME280;1921;49.368;11.068;2023-08-17T11:33:35;97657.13;;;40.81;28.02
3812;BME280;1921;49.368;11.068;2023-08-17T11:36:02;97658.34;;;40.83;28.05
3812;BME280;1921;49.368;11.068;2023-08-17T11:38:37;97674.59;;;41.47;28.10
3812;BME280;1921;49.368;11.068;2023-08-17T11:41:06;97662.59;;;40.77;28.24
3812;BME280;1921;49.368;11.068;2023-08-17T11:43:36;97699.84;;;39.99;29.23
3812;BME280;1921;49.368;11.068;2023-08-17T11:46:02;97683.81;;;37.10;33.57
3812;BME280;1921;49.368;11.068;2023-08-17T11:48:29;97668.56;;;37.37;32.34
3812;BME280;1921;49.368;11.068;2023-08-17T11:50:55;97682.41;;;38.89;31.06
3812;BME280;1921;49.368;11.068;2023-08-17T11:53:21;97653.81;;;39.48;30.23
3812;BME280;1921;49.368;11.068;2023-08-17T11:55:48;97677.94;;;40.22;29.17
3812;BME280;1921;49.368;11.068;2023-08-17T11:58:15;97696.81;;;39.77;30.22
3812;BME280;1921;49.368;11.068;2023-08-17T12:00:44;97676.88;;;40.03;29.20
3812;BME280;1921;49.368;11.068;2023-08-17T12:03:15;97662.44;;;40.63;28.41
3812;BME280;1921;49.368;11.068;2023-08-17T12:05:42;97662.84;;;39.52;28.95
3812;BME280;1921;49.368;11.068;2023-08-17T12:08:09;97667.78;;;38.77;30.87
3812;BME280;1921;49.368;11.068;2023-08-17T12:10:37;97662.34;;;38.39;31.35
3812;BME280;1921;49.368;11.068;2023-08-17T12:13:03;97655.66;;;38.56;31.68
3812;BME280;1921;49.368;11.068;2023-08-17T12:15:33;97675.03;;;35.56;35.56
3812;BME280;1921;49.368;11.068;2023-08-17T12:18:03;97681.34;;;33.39;38.94
3812;BME280;1921;49.368;11.068;2023-08-17T12:20:29;97640.16;;;34.22;36.92
3812;BME280;1921;49.368;11.068;2023-08-17T12:22:57;97648.69;;;35.69;35.25
3812;BME280;1921;49.368;11.068;2023-08-17T12:25:25;97658.00;;;36.60;33.60
3812;BME280;1921;49.368;11.068;2023-08-17T12:27:51;97650.13;;;37.31;32.32
3812;BME280;1921;49.368;11.068;2023-08-17T12:30:31;97639.97;;;36.40;33.95
3812;BME280;1921;49.368;11.068;2023-08-17T12:32:58;97643.22;;;36.33;33.76
3812;BME280;1921;49.368;11.068;2023-08-17T12:35:25;97647.50;;;34.75;36.62
3812;BME280;1921;49.368;11.068;2023-08-17T12:37:54;97623.38;;;36.17;34.55
3812;BME280;1921;49.368;11.068;2023-08-17T12:40:21;97605.50;;;36.72;33.32
3812;BME280;1921;49.368;11.068;2023-08-17T12:42:48;97625.66;;;37.97;30.46
3812;BME280;1921;49.368;11.068;2023-08-17T12:45:15;97577.63;;;34.15;35.54
3812;BME280;1921;49.368;11.068;2023-08-17T12:47:41;97600.75;;;33.91;36.58
3812;BME280;1921;49.368;11.068;2023-08-17T12:50:07;97595.19;;;34.30;36.90
3812;BME280;1921;49.368;11.068;2023-08-17T12:52:33;97615.75;;;36.63;33.70
3812;BME280;1921;49.368;11.068;2023-08-17T12:54:59;97617.75;;;37.41;32.11
3812;BME280;1921;49.368;11.068;2023-08-17T12:57:25;97541.41;;;35.99;34.12
3812;BME280;1921;49.368;11.068;2023-08-17T12:59:52;97585.16;;;36.82;33.20
3812;BME280;1921;49.368;11.068;2023-08-17T13:02:20;97633.63;;;37.24;33.39
3812;BME280;1921;49.368;11.068;2023-08-17T13:04:46;97598.19;;;38.06;31.32
3812;BME280;1921;49.368;11.068;2023-08-17T13:07:11;97622.75;;;39.10;30.03
3812;BME280;1921;49.368;11.068;2023-08-17T13:09:37;97623.59;;;39.60;28.95
3812;BME280;1921;49.368;11.068;2023-08-17T13:12:03;97607.00;;;40.36;28.57
3812;BME280;1921;49.368;11.068;2023-08-17T13:14:29;97611.19;;;40.97;26.92
3812;BME280;1921;49.368;11.068;2023-08-17T13:16:55;97580.25;;;41.41;26.67
3812;BME280;1921;49.368;11.068;2023-08-17T13:19:20;97618.97;;;42.02;25.56